createdAt,value
2018-02-08T00:01:39.970Z,40.40
2018-02-08T00:06:43.100Z,39.30
2018-02-08T00:11:46.270Z,36.70
2018-02-08T00:16:49.338Z,39.83
2018-02-08T00:21:52.435Z,39.55
2018-02-08T00:26:55.931Z,35.47
2018-02-08T00:31:59.451Z,37.03
2018-02-08T00:37:02.551Z,38.93
2018-02-08T00:42:05.688Z,32.17
2018-02-08T00:47:08.780Z,39.70
2018-02-08T00:52:11.911Z,36.80
2018-02-08T00:57:15.008Z,34.07
2018-02-08T01:02:19.475Z,36.83
2018-02-08T01:07:22.564Z,38.67
2018-02-08T01:12:25.691Z,33.60
2018-02-08T01:17:28.929Z,37.67
2018-02-08T01:22:32.043Z,35.13
2018-02-08T01:27:35.552Z,35.83
2018-02-08T01:32:39.464Z,31.17
2018-02-08T01:37:42.544Z,31.85
2018-02-08T01:42:46.402Z,37.00
2018-02-08T01:47:50.665Z,30.57
2018-02-08T01:52:54.874Z,34.90
2018-02-08T01:57:58.355Z,35.17
2018-02-08T02:03:01.504Z,31.97
2018-02-08T02:08:05.367Z,33.53
2018-02-08T02:13:08.495Z,29.67
2018-02-08T02:18:11.583Z,35.90
2018-02-08T02:23:16.492Z,32.60
2018-02-08T02:28:20.379Z,32.10
2018-02-08T02:33:23.473Z,34.55
2018-02-08T02:38:26.612Z,31.23
2018-02-08T02:43:29.711Z,32.83
2018-02-08T02:48:33.591Z,29.27
2018-02-08T02:53:36.687Z,27.43
2018-02-08T02:58:40.216Z,33.97
2018-02-08T03:03:43.308Z,31.97
2018-02-08T03:08:46.443Z,34.72
2018-02-08T03:13:49.931Z,35.67
2018-02-08T03:18:53.020Z,34.70
2018-02-08T03:23:56.547Z,32.30
2018-02-08T03:29:00.033Z,33.60
2018-02-08T03:34:04.515Z,32.67
2018-02-08T03:39:08.009Z,33.83
2018-02-08T03:44:12.490Z,31.93
2018-02-08T03:49:15.587Z,31.93
2018-02-08T03:54:18.695Z,35.30
2018-02-08T03:59:23.175Z,33.93
2018-02-08T04:04:27.775Z,30.57
2018-02-08T04:09:32.271Z,34.87
2018-02-08T04:14:36.876Z,30.90
2018-02-08T04:19:39.989Z,36.70
2018-02-08T04:24:43.120Z,28.60
2018-02-08T04:29:47.572Z,31.73
2018-02-08T04:34:52.216Z,35.87
2018-02-08T04:40:13.163Z,33.33
2018-02-08T04:45:29.279Z,30.77
2018-02-08T04:50:33.746Z,31.00
2018-02-08T04:55:36.843Z,31.73
2018-02-08T05:00:41.492Z,31.50
2018-02-08T05:05:44.598Z,33.97
2018-02-08T05:10:49.079Z,33.77
2018-02-08T05:15:52.573Z,34.57
2018-02-08T05:20:55.703Z,35.03
2018-02-08T05:25:59.568Z,33.73
2018-02-08T05:31:03.468Z,31.83
2018-02-08T05:36:06.568Z,33.05
2018-02-08T05:41:09.716Z,33.37
2018-02-08T05:46:13.575Z,33.83
2018-02-08T05:51:18.049Z,35.30
2018-02-08T05:56:22.648Z,36.07
2018-02-08T06:01:26.564Z,35.40
2018-02-08T06:06:29.656Z,34.90
2018-02-08T06:11:32.796Z,35.47
2018-02-08T06:16:36.664Z,34.67
2018-02-08T06:21:39.771Z,35.07
2018-02-08T06:26:44.014Z,35.50
2018-02-08T06:31:47.904Z,35.47
2018-02-08T06:36:52.136Z,34.63
2018-02-08T06:41:56.036Z,35.13
2018-02-08T06:47:00.652Z,35.60
2018-02-08T06:52:04.551Z,37.80
2018-02-08T06:57:08.996Z,37.53
2018-02-08T07:02:13.273Z,36.90
2018-02-08T07:07:16.764Z,34.80
2018-02-08T07:12:22.038Z,35.08
2018-02-08T07:17:26.476Z,35.47
2018-02-08T07:22:29.964Z,36.03
2018-02-08T07:27:33.064Z,33.67
2018-02-08T07:32:36.176Z,36.80
2018-02-08T07:37:39.316Z,35.17
2018-02-08T07:42:42.434Z,36.37
2018-02-08T07:47:45.600Z,36.47
2018-02-08T07:52:50.071Z,32.92
2018-02-08T07:57:53.598Z,31.37
2018-02-08T08:02:56.695Z,30.48
2018-02-08T08:07:59.849Z,32.95
2018-02-08T08:13:03.709Z,39.00
2018-02-08T08:18:07.980Z,39.55
2018-02-08T08:23:12.440Z,35.37
2018-02-08T08:28:15.554Z,33.53
2018-02-08T08:33:20.343Z,28.47
2018-02-08T08:38:25.295Z,28.63
2018-02-08T08:43:29.179Z,29.33
2018-02-08T08:48:32.595Z,28.62
2018-02-08T08:53:36.461Z,29.20
2018-02-08T08:58:41.311Z,29.52
2018-02-08T09:03:45.799Z,29.48
2018-02-08T09:08:49.644Z,28.87
2018-02-08T09:13:52.764Z,30.37
2018-02-08T09:18:55.863Z,30.13
2018-02-08T09:23:59.416Z,30.67
2018-02-08T09:29:03.271Z,32.60
2018-02-08T09:34:06.403Z,33.10
2018-02-08T09:39:09.504Z,31.97
2018-02-08T09:44:13.356Z,33.13
2018-02-08T09:49:17.816Z,33.23
2018-02-08T09:54:21.709Z,32.93
2018-02-08T09:59:25.708Z,32.83
2018-02-08T10:04:28.835Z,34.30
2018-02-08T10:09:32.316Z,34.57
2018-02-08T10:14:35.395Z,32.53
2018-02-08T10:19:39.257Z,34.77
2018-02-08T10:24:43.736Z,33.37
2018-02-08T10:29:47.224Z,34.17
2018-02-08T10:34:50.667Z,35.30
2018-02-08T10:39:55.108Z,36.03
2018-02-08T10:44:59.331Z,38.10
2018-02-08T10:50:02.464Z,37.93
2018-02-08T10:55:06.275Z,34.53
2018-02-08T11:00:09.404Z,37.90
2018-02-08T11:05:13.860Z,39.43
2018-02-08T11:10:18.328Z,41.00
2018-02-08T11:15:22.184Z,37.50
2018-02-08T11:20:26.084Z,38.67
2018-02-08T11:25:29.180Z,39.13
2018-02-08T11:30:33.447Z,39.17
2018-02-08T11:35:36.551Z,39.43
2018-02-08T11:40:39.671Z,39.57
2018-02-08T11:45:42.756Z,39.78
2018-02-08T11:50:47.191Z,38.97
2018-02-08T11:55:51.662Z,39.07
2018-02-08T12:00:55.144Z,41.73
2018-02-08T12:05:58.285Z,41.50
2018-02-08T12:11:01.382Z,42.20
2018-02-08T12:16:06.015Z,43.07
2018-02-08T12:21:10.456Z,43.90
2018-02-08T12:26:14.940Z,43.25
2018-02-08T12:31:19.383Z,40.30
2018-02-08T12:36:24.011Z,43.43
2018-02-08T12:41:27.856Z,43.60
2018-02-08T12:46:32.084Z,40.27
2018-02-08T12:51:35.972Z,45.13
2018-02-08T12:56:39.097Z,44.50
2018-02-08T13:01:43.544Z,41.27
2018-02-08T13:06:47.428Z,41.50
2018-02-08T13:11:51.726Z,41.17
2018-02-08T13:16:57.075Z,43.67
2018-02-08T13:22:00.597Z,41.77
2018-02-08T13:27:05.035Z,41.30
2018-02-08T13:32:08.994Z,40.30
2018-02-08T13:37:13.399Z,41.22
2018-02-08T13:42:19.807Z,41.70
2018-02-08T13:53:07.488Z,42.37
2018-02-08T14:03:56.292Z,43.70
2018-02-08T14:09:00.524Z,35.07
2018-02-08T14:14:04.959Z,39.07
2018-02-08T14:19:09.394Z,40.20
2018-02-08T14:24:12.873Z,42.93
2018-02-08T14:29:15.955Z,45.60
2018-02-08T14:34:19.245Z,43.17
2018-02-08T14:39:23.139Z,43.10
2018-02-08T14:44:26.212Z,44.03
2018-02-08T14:49:30.104Z,43.17
2018-02-08T14:54:34.542Z,42.33
2018-02-08T14:59:38.392Z,42.80
2018-02-08T15:04:42.228Z,38.83
2018-02-08T15:09:46.812Z,36.73
2018-02-08T15:14:50.304Z,37.00
2018-02-08T15:19:53.380Z,38.07
2018-02-08T15:24:57.811Z,39.57
2018-02-08T15:30:02.252Z,40.70
2018-02-08T15:35:06.675Z,43.67
2018-02-08T15:40:09.760Z,41.57
2018-02-08T15:45:14.199Z,42.25
2018-02-08T15:50:18.655Z,37.97
2018-02-08T15:55:22.504Z,36.75
2018-02-08T16:00:25.584Z,40.03
2018-02-08T16:05:30.668Z,38.53
2018-02-08T16:10:33.778Z,37.73
2018-02-08T16:15:38.207Z,39.42
2018-02-08T16:20:42.067Z,44.13
2018-02-08T16:25:46.560Z,45.07
2018-02-08T16:30:50.983Z,43.10
2018-02-08T16:35:54.457Z,42.87
2018-02-08T16:40:57.541Z,43.40
2018-02-08T16:46:01.400Z,42.37
2018-02-08T16:51:05.631Z,44.20
2018-02-08T16:56:09.492Z,45.20
2018-02-08T17:01:12.579Z,44.97
2018-02-08T17:06:17.019Z,44.67
2018-02-08T17:11:21.484Z,47.40
2018-02-08T17:16:24.959Z,45.37
2018-02-08T17:21:29.433Z,46.92
2018-02-08T17:26:33.832Z,46.90
2018-02-08T17:31:38.054Z,45.07
2018-02-08T17:36:41.136Z,45.50
2018-02-08T17:41:44.224Z,43.83
2018-02-08T17:46:47.712Z,55.97
2018-02-08T17:51:52.277Z,47.70
2018-02-08T17:56:56.556Z,45.63
2018-02-08T18:02:01.004Z,39.10
2018-02-08T18:07:04.857Z,49.43
2018-02-08T18:12:09.093Z,47.20
2018-02-08T18:17:13.523Z,49.57
2018-02-08T18:22:18.114Z,47.03
2018-02-08T18:27:21.205Z,50.33
2018-02-08T18:32:24.291Z,47.37
2018-02-08T18:37:28.752Z,47.80
2018-02-08T18:42:33.030Z,48.97
2018-02-08T18:47:36.064Z,47.35
2018-02-08T18:52:40.655Z,49.85
2018-02-08T18:57:45.599Z,46.77
2018-02-08T19:02:49.090Z,46.57
2018-02-08T19:07:52.186Z,48.38
2018-02-08T19:12:56.403Z,48.73
2018-02-08T19:17:59.900Z,48.50
2018-02-08T19:23:04.165Z,47.30
2018-02-08T19:28:07.680Z,49.87
2018-02-08T19:33:12.226Z,50.40
2018-02-08T19:38:15.735Z,53.97
2018-02-08T19:43:19.959Z,51.70
2018-02-08T19:48:23.821Z,50.60
2018-02-08T19:53:26.908Z,54.27
2018-02-08T19:58:32.828Z,52.20
2018-02-08T20:03:36.357Z,52.47
2018-02-08T20:08:40.568Z,52.17
2018-02-08T20:13:44.420Z,52.33
2018-02-08T20:18:48.640Z,49.00
2018-02-08T20:23:51.739Z,48.70
2018-02-08T20:28:54.844Z,49.37
2018-02-08T20:33:58.706Z,49.40
2018-02-08T20:39:03.140Z,49.13
2018-02-08T20:44:06.999Z,50.37
2018-02-08T20:49:12.334Z,50.07
2018-02-08T20:54:16.801Z,45.17
2018-02-08T20:59:20.288Z,51.30
2018-02-08T21:04:24.732Z,47.57
2018-02-08T21:09:29.327Z,52.20
2018-02-08T21:14:32.436Z,52.37
2018-02-08T21:19:35.713Z,50.13
2018-02-08T21:24:39.790Z,52.67
2018-02-08T21:29:44.417Z,52.83
2018-02-08T21:34:47.500Z,51.47
2018-02-08T21:39:51.936Z,50.73
2018-02-08T21:44:55.456Z,53.60
2018-02-08T21:49:59.303Z,55.00
2018-02-08T21:55:02.392Z,52.00
2018-02-08T22:00:05.497Z,53.27
2018-02-08T22:05:08.992Z,51.07
2018-02-08T22:10:12.072Z,52.65
2018-02-08T22:15:16.516Z,52.95
2018-02-08T22:20:19.998Z,53.77
2018-02-08T22:25:24.451Z,51.58
2018-02-08T22:30:27.532Z,52.40
2018-02-08T22:35:32.141Z,50.83
2018-02-08T22:40:35.227Z,49.63
2018-02-08T22:45:38.389Z,53.43
2018-02-08T22:50:42.980Z,54.93
2018-02-08T22:55:46.116Z,52.47
2018-02-08T23:00:50.545Z,52.70
2018-02-08T23:05:55.028Z,55.53
2018-02-08T23:10:58.132Z,55.05
2018-02-08T23:16:02.609Z,55.85
2018-02-08T23:21:05.700Z,55.23
2018-02-08T23:26:10.171Z,54.93
2018-02-08T23:31:14.028Z,56.37
2018-02-08T23:36:17.555Z,57.15
2018-02-08T23:41:21.048Z,58.57
2018-02-08T23:46:25.319Z,55.85
2018-02-08T23:51:29.176Z,56.60
2018-02-08T23:56:32.308Z,57.13
